x

Edisto - 41 Nm Southeast Of Charleston, Sc (41004) Wave Buoy

1:50am - Wed 2nd Sep 2015 All times are EDT. -4 hours from GMT.

  • Sig Wave height 2.3ft
  • Swell Direction
  • Peak Period 7s
  • Average Period 6s
  • Wind
    9mph
  • Sea Temp 82°f
  • Air Temp 83°f
  • Sea Pressure 1018mb
  • Edisto - 41 Nm Southeast Of Charleston, Sc
  • Edisto - 41 Nm Southeast Of Charleston, Sc

More Historic Weather Station data

Upgrade to MSW Pro to gain access to the past 30 days of data for over 8000 Wavebouys and Weather Stations around the globe.

Join Pro

Comparision Forecast

View Surf forecast
   
Wed 09/02 1:50am 2.5ft 7s 6s 9
mph
1018mb 82f 83f
12:50am 2ft 8s 6s 9 11 mph 1018.2mb 83f 83f
Tue 09/01 11:50pm 2.5ft 7s 6s 9
mph
1018.5mb 83f 82f
10:50pm 2.5ft 7s 7s 9
mph
1018.4mb 83f 82f
9:50pm 2ft 7s 6s 7 9 mph 1018.5mb 83f 82f
8:50pm 2.5ft 6s 6s 7 9 mph 1018.1mb 83f 82f
7:50pm 2.5ft 7s 6s 7 9 mph 1017.9mb 83f 82f
6:50pm 2.5ft 7s 6s 7 9 mph 1017.9mb 83f 82f
5:50pm 2.5ft 7s 6s 7
mph
1018.1mb 83f 82f
4:50pm 2.5ft 7s 6s 7
mph
1018.3mb 83f 82f
3:50pm 2.5ft 8s 6s 4 7 mph 1018.5mb 83f 82f
2:50pm 2.5ft 7s 6s 4 7 mph 1018.8mb 83f 81f
1:50pm 3ft 8s 6s 7
mph
1019mb 83f 81f
12:50pm 2.5ft 7s 6s 7 9 mph 1019.1mb 83f 81f
11:50am 2.5ft 8s 6s 9
mph
1019.2mb 83f 81f
10:50am 2.5ft 8s 6s 9 11 mph 1019.3mb 83f 81f
9:50am 2.5ft 8s 6s 9
mph
1019.2mb 83f 81f
8:50am 2.5ft 8s 6s 9
mph
1018.9mb 83f 81f
7:50am 3ft 8s 6s 4
mph
1018.8mb 82f 81f
6:50am 3ft 8s 6s 4
mph
1018.1mb 82f 81f
5:50am 3ft 8s 6s 4 7 mph 1017.4mb 82f 82f
4:50am 3ft 8s 6s 7 9 mph 1017mb 82f 82f
3:50am 3ft 8s 6s 7 9 mph 1017.3mb 82f 82f
2:50am 3.5ft 7s 6s 9 11 mph 1017.7mb 82f 82f
1:50am 3.5ft 8s 6s 9
mph
1018.2mb 82f 82f
12:50am 3.5ft 8s 6s 7 9 mph 1018.2mb 83f 82f
Mon 08/31 11:50pm 3.5ft 6s 6s 7 9 mph 1018.4mb 83f 82f
10:50pm 3.5ft 8s 6s 7 9 mph 1018.2mb 83f 82f
9:50pm 4ft 8s 6s 9 11 mph 1018.1mb 83f 82f
8:50pm 4ft 8s 6s 9 11 mph 1017.1mb 83f 82f
7:50pm 4ft 9s 5s 11 13 mph 1016.7mb 83f 82f
6:50pm 4ft 8s 5s 11 13 mph 1016.4mb 83f 82f
5:50pm 4.5ft 9s 5s 9 11 mph 1016.5mb 83f 81f
4:50pm 5ft 9s 5s 11 13 mph 1016.4mb 83f 81f
3:50pm 4.5ft 9s 5s 16 18 mph 1016.2mb 83f 82f
2:50pm 5ft 8s 6s 13 16 mph 1016.7mb 83f 81f
1:50pm 5ft 9s 6s 18
mph
1017.3mb 83f 80f
12:50pm 5ft 9s 6s 16 20 mph 1017.7mb 83f 78f
11:50am 5.5ft 9s 5s 18 20 mph 1017.5mb 84f 80f
10:50am 6ft 10s 5s 18 22 mph 1017.3mb 84f 78f
9:50am 6ft 10s 6s 20 25 mph 1016.9mb 84f 83f
8:50am 6ft 10s 5s 20 25 mph 1016.6mb 84f 82f
7:50am 6ft 9s 5s 22 27 mph 1015.9mb 84f 82f
6:50am 5.5ft 9s 5s 22 27 mph 1015.6mb 84f 82f
5:50am 6ft 10s 5s 25 29 mph 1015.8mb 84f 81f
4:50am 6ft 10s 5s 22 29 mph 1016.1mb 84f 81f
3:50am 5.5ft 10s 6s 20 25 mph 1016.5mb 84f 82f
2:50am 5ft 11s 6s 18 22 mph 1017.3mb 84f 82f
1:50am 5ft 11s 6s 18 20 mph 1017.5mb 84f 81f
12:50am 5ft 11s 6s 16 18 mph 1017.8mb 84f 81f
Sun 08/30 11:50pm 5ft 11s 6s 16 20 mph 1017.5mb 84f 80f
10:50pm 5.5ft 10s 6s 20 25 mph 1018.1mb 85f 80f
9:50pm 5ft 10s 6s 20 22 mph 1018.4mb 85f 79f
8:50pm 4.5ft 11s 6s 20 22 mph 1018.7mb 84f 78f
7:50pm 4.5ft 10s 7s 18 20 mph 1018.4mb 84f 78f
6:50pm 4.5ft 10s 7s 18 20 mph 1018.5mb 84f 77f
5:50pm 4ft 10s 7s 13 16 mph 1019.7mb 84f 75f
4:50pm 4.5ft 10s 7s 13 16 mph 1019.5mb 84f 75f
3:50pm 4.5ft 11s 7s 7 9 mph 1020mb 84f 76f
2:50pm 4.5ft 11s 7s 7 11 mph 1020.1mb 84f 77f
1:50pm 4.5ft 11s 6s 9 11 mph 1020.3mb 84f 78f
12:50pm 4.5ft 11s 7s 11 13 mph 1020.5mb 84f 80f
11:50am 4.5ft 10s 7s 11 16 mph 1020.1mb 85f 80f
10:50am 4.5ft 10s 8s 11 13 mph 1019.7mb 85f 80f
9:50am 3.5ft 11s 7s 7 11 mph 1019.6mb 85f 78f
8:50am 4ft 11s 7s 2 4 mph 1019.5mb 85f 79f
7:50am 3.5ft 11s 7s 4 7 mph 1018.9mb 85f 79f
6:50am 4ft 10s 6s 7 9 mph 1018.6mb 85f 78f
5:50am 3.5ft 11s 5s 4 7 mph 1018.2mb 85f 77f
4:50am 4ft 11s 7s 4 7 mph 1018.5mb 84f 76f
3:50am 3.5ft 11s 6s 7 13 mph 1019.1mb 85f 75f
2:50am 4.5ft 11s 6s 11
mph
1018.5mb 85f 80f
1:50am 4.5ft 11s 6s 9 11 mph 1019mb 85f 80f
12:50am 4.5ft 11s 6s 9 11 mph 1019.4mb 85f 80f
Sat 08/29 11:50pm 4.5ft 11s 6s 9 13 mph 1019.6mb 85f 80f
10:50pm 4ft 11s 6s 16 18 mph 1019.2mb 85f 82f
9:50pm 4ft 11s 6s 11 13 mph 1019.1mb 85f 82f
8:50pm 3.5ft 11s 5s 13 18 mph 1018.6mb 85f 81f
7:50pm 3.5ft 11s 5s 16 18 mph 1018.4mb 85f 81f
6:50pm 3.5ft 11s 5s 16 18 mph 1018.3mb 85f 80f
5:50pm 3.5ft 9s 5s 13 16 mph 1018.6mb 85f 80f
4:50pm 4ft 11s 5s 16 18 mph 1018.9mb 85f 80f
3:50pm 4.5ft 6s 5s 18
mph
1019.4mb 85f 80f
2:50pm 4.5ft 11s 5s 16 18 mph 1020.1mb 85f 80f
1:50pm 4.5ft 6s 5s 16 20 mph 1020.5mb 85f 80f
12:50pm 4.5ft 6s 5s 18 20 mph 1020.6mb 85f 80f
11:50am 4.5ft 6s 5s 16 20 mph 1020.6mb 85f 81f
10:50am 4.5ft 7s 5s 9 11 mph 1020.8mb 85f 81f
9:50am 4.5ft 5s 5s 13 20 mph 1020.3mb 85f 81f
8:50am 4ft 7s 5s 16 20 mph 1019.7mb 85f 81f
7:50am 3.5ft 8s 5s 18 20 mph 1019.7mb 85f 81f